sensor_id;sensor_type;location;lat;lon;timestamp;pressure;altitude;pressure_sealevel;temperature;humidity
1736;BME280;865;53.672;10.250;2024-02-16T00:02:02;100701.06;;;10.56;100.00
1736;BME280;865;53.672;10.250;2024-02-16T00:04:28;100696.47;;;10.67;100.00
1736;BME280;865;53.672;10.250;2024-02-16T00:06:55;100697.38;;;10.66;100.00
1736;BME280;865;53.672;10.250;2024-02-16T00:09:22;100699.47;;;10.50;100.00
1736;BME280;865;53.672;10.250;2024-02-16T00:11:48;100694.25;;;10.50;100.00
1736;BME280;865;53.672;10.250;2024-02-16T00:14:16;100702.84;;;10.54;100.00
1736;BME280;865;53.672;10.250;2024-02-16T00:16:43;100697.66;;;10.52;100.00
1736;BME280;865;53.672;10.250;2024-02-16T00:19:10;100691.78;;;10.42;100.00
1736;BME280;865;53.672;10.250;2024-02-16T00:21:36;100686.47;;;10.47;100.00
1736;BME280;865;53.672;10.250;2024-02-16T00:24:03;100682.25;;;10.41;100.00
1736;BME280;865;53.672;10.250;2024-02-16T00:26:30;100676.28;;;10.35;100.00
1736;BME280;865;53.672;10.250;2024-02-16T00:28:56;100672.75;;;10.37;100.00
1736;BME280;865;53.672;10.250;2024-02-16T00:31:24;100672.75;;;10.37;100.00
1736;BME280;865;53.672;10.250;2024-02-16T00:33:50;100669.34;;;10.35;100.00
1736;BME280;865;53.672;10.250;2024-02-16T00:36:17;100668.25;;;10.45;100.00
1736;BME280;865;53.672;10.250;2024-02-16T00:38:43;100667.41;;;10.43;100.00
1736;BME280;865;53.672;10.250;2024-02-16T00:41:18;100662.53;;;10.25;100.00
1736;BME280;865;53.672;10.250;2024-02-16T00:43:44;100662.56;;;10.23;100.00
1736;BME280;865;53.672;10.250;2024-02-16T00:46:11;100652.28;;;10.17;100.00
1736;BME280;865;53.672;10.250;2024-02-16T00:48:38;100652.88;;;10.32;100.00
1736;BME280;865;53.672;10.250;2024-02-16T00:51:04;100656.38;;;10.29;100.00
1736;BME280;865;53.672;10.250;2024-02-16T00:53:31;100648.47;;;10.35;100.00
1736;BME280;865;53.672;10.250;2024-02-16T00:55:57;100644.97;;;10.36;100.00
1736;BME280;865;53.672;10.250;2024-02-16T00:58:24;100642.47;;;10.30;100.00
1736;BME280;865;53.672;10.250;2024-02-16T01:00:50;100640.81;;;10.24;100.00
1736;BME280;865;53.672;10.250;2024-02-16T01:03:17;100628.88;;;10.14;100.00
1736;BME280;865;53.672;10.250;2024-02-16T01:05:43;100627.94;;;10.17;100.00
1736;BME280;865;53.672;10.250;2024-02-16T01:08:10;100630.47;;;10.20;100.00
1736;BME280;865;53.672;10.250;2024-02-16T01:10:36;100622.66;;;10.20;100.00
1736;BME280;865;53.672;10.250;2024-02-16T01:13:03;100628.69;;;10.23;100.00
1736;BME280;865;53.672;10.250;2024-02-16T01:15:30;100629.53;;;10.24;100.00
1736;BME280;865;53.672;10.250;2024-02-16T01:17:57;100629.59;;;10.21;100.00
1736;BME280;865;53.672;10.250;2024-02-16T01:20:28;100627.13;;;10.15;100.00
1736;BME280;865;53.672;10.250;2024-02-16T01:22:57;100618.47;;;10.11;100.00
1736;BME280;865;53.672;10.250;2024-02-16T01:25:24;100619.44;;;10.07;100.00
1736;BME280;865;53.672;10.250;2024-02-16T01:27:50;100615.06;;;10.09;100.00
1736;BME280;865;53.672;10.250;2024-02-16T01:30:17;100612.41;;;10.12;100.00
1736;BME280;865;53.672;10.250;2024-02-16T01:32:45;100624.63;;;10.09;100.00
1736;BME280;865;53.672;10.250;2024-02-16T01:35:11;100618.59;;;10.07;100.00
1736;BME280;865;53.672;10.250;2024-02-16T01:37:41;100623.97;;;9.97;100.00
1736;BME280;865;53.672;10.250;2024-02-16T01:40:11;100624.91;;;9.93;100.00
1736;BME280;865;53.672;10.250;2024-02-16T01:42:41;100623.31;;;9.88;100.00
1736;BME280;865;53.672;10.250;2024-02-16T01:45:09;100624.97;;;9.90;100.00
1736;BME280;865;53.672;10.250;2024-02-16T01:47:37;100625.81;;;9.92;100.00
1736;BME280;865;53.672;10.250;2024-02-16T01:50:04;100624.22;;;9.85;100.00
1736;BME280;865;53.672;10.250;2024-02-16T01:52:32;100619.88;;;9.84;100.00
1736;BME280;865;53.672;10.250;2024-02-16T01:55:00;100613.78;;;9.85;100.00
1736;BME280;865;53.672;10.250;2024-02-16T01:57:30;100611.94;;;9.90;100.00
1736;BME280;865;53.672;10.250;2024-02-16T01:59:58;100617.25;;;9.84;100.00
1736;BME280;865;53.672;10.250;2024-02-16T02:02:25;100623.44;;;9.80;100.00
1736;BME280;865;53.672;10.250;2024-02-16T02:04:52;100618.41;;;9.71;100.00
1736;BME280;865;53.672;10.250;2024-02-16T02:07:18;100621.78;;;9.74;100.00
1736;BME280;865;53.672;10.250;2024-02-16T02:09:45;100613.06;;;9.77;100.00
1736;BME280;865;53.672;10.250;2024-02-16T02:12:12;100622.72;;;9.72;100.00
1736;BME280;865;53.672;10.250;2024-02-16T02:14:39;100607.81;;;9.80;100.00
1736;BME280;865;53.672;10.250;2024-02-16T02:17:05;100602.66;;;9.75;100.00
1736;BME280;865;53.672;10.250;2024-02-16T02:19:32;100603.72;;;9.65;100.00
1736;BME280;865;53.672;10.250;2024-02-16T02:21:59;100586.28;;;9.70;100.00
1736;BME280;865;53.672;10.250;2024-02-16T02:24:27;100582.78;;;9.71;100.00
1736;BME280;865;53.672;10.250;2024-02-16T02:26:53;100576.59;;;9.77;100.00
1736;BME280;865;53.672;10.250;2024-02-16T02:29:20;100578.22;;;9.82;100.00
1736;BME280;865;53.672;10.250;2024-02-16T02:31:47;100572.06;;;9.87;100.00
1736;BME280;865;53.672;10.250;2024-02-16T02:34:13;100573.09;;;9.79;100.00
1736;BME280;865;53.672;10.250;2024-02-16T02:36:41;100571.28;;;9.83;100.00
1736;BME280;865;53.672;10.250;2024-02-16T02:39:07;100572.97;;;9.86;100.00
1736;BME280;865;53.672;10.250;2024-02-16T02:41:34;100567.66;;;9.90;100.00
1736;BME280;865;53.672;10.250;2024-02-16T02:44:00;100560.06;;;9.79;100.00
1736;BME280;865;53.672;10.250;2024-02-16T02:46:27;100560.00;;;9.81;100.00
1736;BME280;865;53.672;10.250;2024-02-16T02:48:54;100546.19;;;9.79;100.00
1736;BME280;865;53.672;10.250;2024-02-16T02:51:20;100548.78;;;9.79;100.00
1736;BME280;865;53.672;10.250;2024-02-16T02:53:47;100539.88;;;9.89;100.00
1736;BME280;865;53.672;10.250;2024-02-16T02:56:13;100545.81;;;9.96;100.00
1736;BME280;865;53.672;10.250;2024-02-16T02:58:40;100549.25;;;9.98;100.00
1736;BME280;865;53.672;10.250;2024-02-16T03:01:06;100552.72;;;10.00;100.00
1736;BME280;865;53.672;10.250;2024-02-16T03:03:35;100551.84;;;9.99;100.00
1736;BME280;865;53.672;10.250;2024-02-16T03:06:01;100551.78;;;10.02;100.00
1736;BME280;865;53.672;10.250;2024-02-16T03:08:30;100549.25;;;9.98;100.00
1736;BME280;865;53.672;10.250;2024-02-16T03:10:56;100550.63;;;9.74;100.00
1736;BME280;865;53.672;10.250;2024-02-16T03:13:23;100544.56;;;9.72;100.00
1736;BME280;865;53.672;10.250;2024-02-16T03:15:49;100538.56;;;9.70;100.00
1736;BME280;865;53.672;10.250;2024-02-16T03:18:15;100531.41;;;9.78;100.00
1736;BME280;865;53.672;10.250;2024-02-16T03:20:42;100529.53;;;9.86;100.00
1736;BME280;865;53.672;10.250;2024-02-16T03:23:12;100522.53;;;9.88;100.00
1736;BME280;865;53.672;10.250;2024-02-16T03:25:39;100522.41;;;9.94;100.00
1736;BME280;865;53.672;10.250;2024-02-16T03:28:09;100522.53;;;9.88;100.00
1736;BME280;865;53.672;10.250;2024-02-16T03:30:36;100520.03;;;9.84;100.00
1736;BME280;865;53.672;10.250;2024-02-16T03:33:03;100514.81;;;9.84;100.00
1736;BME280;865;53.672;10.250;2024-02-16T03:35:30;100514.75;;;9.87;100.00
1736;BME280;865;53.672;10.250;2024-02-16T03:37:56;100510.38;;;9.89;100.00
1736;BME280;865;53.672;10.250;2024-02-16T03:40:24;100498.31;;;9.85;100.00
1736;BME280;865;53.672;10.250;2024-02-16T03:42:53;100502.69;;;9.81;100.00
1736;BME280;865;53.672;10.250;2024-02-16T03:45:20;100495.63;;;9.88;100.00
1736;BME280;865;53.672;10.250;2024-02-16T03:47:47;100496.22;;;10.00;100.00
1736;BME280;865;53.672;10.250;2024-02-16T03:50:15;100499.75;;;9.99;100.00
1736;BME280;865;53.672;10.250;2024-02-16T03:52:42;100499.69;;;10.01;100.00
1736;BME280;865;53.672;10.250;2024-02-16T03:55:08;100508.50;;;9.95;100.00
1736;BME280;865;53.672;10.250;2024-02-16T03:57:35;100507.50;;;10.01;100.00
1736;BME280;865;53.672;10.250;2024-02-16T04:00:02;100508.44;;;9.98;100.00
1736;BME280;865;53.672;10.250;2024-02-16T04:02:30;100516.34;;;9.94;100.00
1736;BME280;865;53.672;10.250;2024-02-16T04:04:57;100511.09;;;9.95;100.00
1736;BME280;865;53.672;10.250;2024-02-16T04:07:23;100513.00;;;9.87;100.00
1736;BME280;865;53.672;10.250;2024-02-16T04:09:50;100513.91;;;9.86;100.00
1736;BME280;865;53.672;10.250;2024-02-16T04:12:16;100518.25;;;9.86;100.00
1736;BME280;865;53.672;10.250;2024-02-16T04:14:43;100514.84;;;9.82;100.00
1736;BME280;865;53.672;10.250;2024-02-16T04:17:10;100512.31;;;9.79;100.00
1736;BME280;865;53.672;10.250;2024-02-16T04:19:37;100508.81;;;9.80;100.00
1736;BME280;865;53.672;10.250;2024-02-16T04:22:04;100507.03;;;9.82;100.00
1736;BME280;865;53.672;10.250;2024-02-16T04:24:30;100508.81;;;9.80;100.00
1736;BME280;865;53.672;10.250;2024-02-16T04:26:57;100507.03;;;9.82;100.00
1736;BME280;865;53.672;10.250;2024-02-16T04:29:23;100514.03;;;9.80;100.00
1736;BME280;865;53.672;10.250;2024-02-16T04:31:50;100505.19;;;9.87;100.00
1736;BME280;865;53.672;10.250;2024-02-16T04:34:16;100503.41;;;9.91;100.00
1736;BME280;865;53.672;10.250;2024-02-16T04:36:43;100500.88;;;9.86;100.00
1736;BME280;865;53.672;10.250;2024-02-16T04:39:09;100500.84;;;9.88;100.00
1736;BME280;865;53.672;10.250;2024-02-16T04:41:36;100503.59;;;9.81;100.00
1736;BME280;865;53.672;10.250;2024-02-16T04:44:03;100501.72;;;9.88;100.00
1736;BME280;865;53.672;10.250;2024-02-16T04:46:29;100499.03;;;9.91;100.00
1736;BME280;865;53.672;10.250;2024-02-16T04:48:56;100504.31;;;9.88;100.00
1736;BME280;865;53.672;10.250;2024-02-16T04:51:23;100501.53;;;9.96;100.00
1736;BME280;865;53.672;10.250;2024-02-16T04:53:49;100500.72;;;9.94;100.00
1736;BME280;865;53.672;10.250;2024-02-16T04:56:16;100506.13;;;9.85;100.00
1736;BME280;865;53.672;10.250;2024-02-16T04:58:42;100511.16;;;9.92;100.00
1736;BME280;865;53.672;10.250;2024-02-16T05:01:09;100515.41;;;9.96;100.00
1736;BME280;865;53.672;10.250;2024-02-16T05:03:36;100518.13;;;9.92;100.00
1736;BME280;865;53.672;10.250;2024-02-16T05:06:03;100510.38;;;9.89;100.00
1736;BME280;865;53.672;10.250;2024-02-16T05:08:30;100513.84;;;9.89;100.00
1736;BME280;865;53.672;10.250;2024-02-16T05:10:57;100513.63;;;9.98;100.00
1736;BME280;865;53.672;10.250;2024-02-16T05:13:23;100508.63;;;9.89;100.00
1736;BME280;865;53.672;10.250;2024-02-16T05:15:52;100500.84;;;9.88;100.00
1736;BME280;865;53.672;10.250;2024-02-16T05:18:23;100494.69;;;9.90;100.00
1736;BME280;865;53.672;10.250;2024-02-16T05:20:51;100503.31;;;9.94;100.00
1736;BME280;865;53.672;10.250;2024-02-16T05:23:18;100506.91;;;9.88;100.00
1736;BME280;865;53.672;10.250;2024-02-16T05:25:44;100500.97;;;9.81;100.00
1736;BME280;865;53.672;10.250;2024-02-16T05:28:10;100499.25;;;9.80;100.00
1736;BME280;865;53.672;10.250;2024-02-16T05:30:38;100498.25;;;9.88;100.00
1736;BME280;865;53.672;10.250;2024-02-16T05:33:05;100498.38;;;9.80;100.00
1736;BME280;865;53.672;10.250;2024-02-16T05:35:31;100495.72;;;9.85;100.00
1736;BME280;865;53.672;10.250;2024-02-16T05:38:00;100499.06;;;9.90;100.00
1736;BME280;865;53.672;10.250;2024-02-16T05:40:33;100487.78;;;9.89;100.00
1736;BME280;865;53.672;10.250;2024-02-16T05:43:11;100492.16;;;9.87;100.00
1736;BME280;865;53.672;10.250;2024-02-16T05:45:38;100487.00;;;9.86;100.00
1736;BME280;865;53.672;10.250;2024-02-16T05:48:08;100486.13;;;9.85;100.00
1736;BME280;865;53.672;10.250;2024-02-16T05:50:37;100488.75;;;9.85;100.00
1736;BME280;865;53.672;10.250;2024-02-16T05:53:03;100493.44;;;9.66;100.00
1736;BME280;865;53.672;10.250;2024-02-16T05:55:30;100498.66;;;9.66;100.00
1736;BME280;865;53.672;10.250;2024-02-16T05:57:56;100482.28;;;9.61;100.00
1736;BME280;865;53.672;10.250;2024-02-16T06:00:23;100484.97;;;9.56;100.00
1736;BME280;865;53.672;10.250;2024-02-16T06:02:49;100490.88;;;9.65;100.00
1736;BME280;865;53.672;10.250;2024-02-16T06:05:16;100488.28;;;9.65;100.00
1736;BME280;865;53.672;10.250;2024-02-16T06:07:42;100490.84;;;9.68;100.00
1736;BME280;865;53.672;10.250;2024-02-16T06:10:09;100491.53;;;9.76;100.00
1736;BME280;865;53.672;10.250;2024-02-16T06:12:37;100507.03;;;9.82;100.00
1736;BME280;865;53.672;10.250;2024-02-16T06:15:05;100510.53;;;9.81;100.00
1736;BME280;865;53.672;10.250;2024-02-16T06:17:33;100510.66;;;9.75;100.00
1736;BME280;865;53.672;10.250;2024-02-16T06:19:59;100512.56;;;9.67;100.00
1736;BME280;865;53.672;10.250;2024-02-16T06:22:27;100516.88;;;9.66;100.00
1736;BME280;865;53.672;10.250;2024-02-16T06:24:53;100507.44;;;9.61;100.00
1736;BME280;865;53.672;10.250;2024-02-16T06:27:20;100510.28;;;9.48;100.00
1736;BME280;865;53.672;10.250;2024-02-16T06:29:46;100500.53;;;9.59;100.00
1736;BME280;865;53.672;10.250;2024-02-16T06:32:13;100514.44;;;9.58;100.00
1736;BME280;865;53.672;10.250;2024-02-16T06:34:40;100503.97;;;9.62;100.00
1736;BME280;865;53.672;10.250;2024-02-16T06:37:07;100506.56;;;9.62;100.00
1736;BME280;865;53.672;10.250;2024-02-16T06:39:34;100511.06;;;9.53;100.00
1736;BME280;865;53.672;10.250;2024-02-16T06:42:00;100511.91;;;9.55;100.00
1736;BME280;865;53.672;10.250;2024-02-16T06:44:27;100506.81;;;9.49;100.00
1736;BME280;865;53.672;10.250;2024-02-16T06:46:53;100505.88;;;9.53;100.00
1736;BME280;865;53.672;10.250;2024-02-16T06:49:20;100505.88;;;9.53;100.00
1736;BME280;865;53.672;10.250;2024-02-16T06:51:47;100517.25;;;9.49;100.00
1736;BME280;865;53.672;10.250;2024-02-16T06:54:14;100519.13;;;9.41;100.00
1736;BME280;865;53.672;10.250;2024-02-16T06:56:40;100522.63;;;9.40;100.00
1736;BME280;865;53.672;10.250;2024-02-16T06:59:07;100520.94;;;9.38;100.00
1736;BME280;865;53.672;10.250;2024-02-16T07:01:35;100523.66;;;9.30;100.00
1736;BME280;865;53.672;10.250;2024-02-16T07:04:01;100516.75;;;9.27;100.00
1736;BME280;865;53.672;10.250;2024-02-16T07:06:28;100514.22;;;9.24;100.00
1736;BME280;865;53.672;10.250;2024-02-16T07:08:55;100520.25;;;9.25;100.00
1736;BME280;865;53.672;10.250;2024-02-16T07:11:22;100513.25;;;9.30;100.00
1736;BME280;865;53.672;10.250;2024-02-16T07:13:50;100520.97;;;9.34;100.00
1736;BME280;865;53.672;10.250;2024-02-16T07:16:16;100515.84;;;9.30;100.00
1736;BME280;865;53.672;10.250;2024-02-16T07:18:44;100525.53;;;9.22;100.00
1736;BME280;865;53.672;10.250;2024-02-16T07:21:11;100512.50;;;9.22;100.00
1736;BME280;865;53.672;10.250;2024-02-16T07:23:38;100528.03;;;9.28;100.00
1736;BME280;865;53.672;10.250;2024-02-16T07:26:04;100527.94;;;9.34;100.00
1736;BME280;865;53.672;10.250;2024-02-16T07:28:33;100529.72;;;9.30;100.00
1736;BME280;865;53.672;10.250;2024-02-16T07:30:59;100529.69;;;9.32;100.00
1736;BME280;865;53.672;10.250;2024-02-16T07:33:26;100534.00;;;9.34;100.00
1736;BME280;865;53.672;10.250;2024-02-16T07:35:55;100540.13;;;9.30;100.00
1736;BME280;865;53.672;10.250;2024-02-16T07:38:22;100535.81;;;9.29;100.00
1736;BME280;865;53.672;10.250;2024-02-16T07:40:48;100527.06;;;9.33;100.00
1736;BME280;865;53.672;10.250;2024-02-16T07:43:17;100526.03;;;9.42;100.00
1736;BME280;865;53.672;10.250;2024-02-16T07:45:45;100531.09;;;9.50;100.00
1736;BME280;865;53.672;10.250;2024-02-16T07:48:11;100528.41;;;9.54;100.00
1736;BME280;865;53.672;10.250;2024-02-16T07:50:38;100529.06;;;9.66;100.00
1736;BME280;865;53.672;10.250;2024-02-16T07:53:04;100516.81;;;9.71;100.00
1736;BME280;865;53.672;10.250;2024-02-16T07:55:31;100525.34;;;9.77;100.00
1736;BME280;865;53.672;10.250;2024-02-16T07:57:58;100521.09;;;9.73;100.00
1736;BME280;865;53.672;10.250;2024-02-16T08:00:25;100521.00;;;9.78;100.00
1736;BME280;865;53.672;10.250;2024-02-16T08:02:52;100526.03;;;9.87;100.00
1736;BME280;865;53.672;10.250;2024-02-16T08:05:19;100528.47;;;9.95;100.00
1736;BME280;865;53.672;10.250;2024-02-16T08:07:46;100526.53;;;10.04;100.00
1736;BME280;865;53.672;10.250;2024-02-16T08:10:13;100532.53;;;10.08;100.00
1736;BME280;865;53.672;10.250;2024-02-16T08:12:40;100539.25;;;10.20;100.00
1736;BME280;865;53.672;10.250;2024-02-16T08:15:07;100532.25;;;10.22;100.00
1736;BME280;865;53.672;10.250;2024-02-16T08:17:34;100538.31;;;10.22;100.00
1736;BME280;865;53.672;10.250;2024-02-16T08:20:02;100540.81;;;10.30;100.00
1736;BME280;865;53.672;10.250;2024-02-16T08:22:29;100536.47;;;10.29;100.00
1736;BME280;865;53.672;10.250;2024-02-16T08:24:55;100531.34;;;10.23;100.00
1736;BME280;865;53.672;10.250;2024-02-16T08:27:22;100522.63;;;10.27;100.00
1736;BME280;865;53.672;10.250;2024-02-16T08:29:48;100527.59;;;10.38;100.00
1736;BME280;865;53.672;10.250;2024-02-16T08:32:16;100524.88;;;10.42;100.00
1736;BME280;865;53.672;10.250;2024-02-16T08:34:43;100507.53;;;10.41;100.00
1736;BME280;865;53.672;10.250;2024-02-16T08:37:10;100511.69;;;10.50;100.00
1736;BME280;865;53.672;10.250;2024-02-16T08:39:38;100512.41;;;10.57;100.00
1736;BME280;865;53.672;10.250;2024-02-16T08:42:05;100502.97;;;10.49;100.00
1736;BME280;865;53.672;10.250;2024-02-16T08:44:32;100508.94;;;10.55;100.00
1736;BME280;865;53.672;10.250;2024-02-16T08:46:58;100510.41;;;10.68;100.00
1736;BME280;865;53.672;10.250;2024-02-16T08:49:25;100494.66;;;10.71;100.00
1736;BME280;865;53.672;10.250;2024-02-16T08:51:52;100508.78;;;10.62;100.00
1736;BME280;865;53.672;10.250;2024-02-16T08:54:18;100504.22;;;10.70;100.00
1736;BME280;865;53.672;10.250;2024-02-16T08:56:46;100512.88;;;10.72;100.00
1736;BME280;865;53.672;10.250;2024-02-16T08:59:12;100529.28;;;10.78;100.00
1736;BME280;865;53.672;10.250;2024-02-16T09:01:39;100523.16;;;10.79;100.00
1736;BME280;865;53.672;10.250;2024-02-16T09:04:06;100519.78;;;10.73;100.00
1736;BME280;865;53.672;10.250;2024-02-16T09:06:32;100525.38;;;10.60;100.00
1736;BME280;865;53.672;10.250;2024-02-16T09:09:01;100520.09;;;10.61;100.00
1736;BME280;865;53.672;10.250;2024-02-16T09:11:28;100528.59;;;10.71;100.00
1736;BME280;865;53.672;10.250;2024-02-16T09:13:55;100526.59;;;10.81;100.00
1736;BME280;865;53.672;10.250;2024-02-16T09:16:21;100520.53;;;10.80;100.00
1736;BME280;865;53.672;10.250;2024-02-16T09:18:50;100528.84;;;10.96;100.00
1736;BME280;865;53.672;10.250;2024-02-16T09:21:17;100527.84;;;11.00;100.00
1736;BME280;865;53.672;10.250;2024-02-16T09:23:43;100538.13;;;11.06;100.00
1736;BME280;865;53.672;10.250;2024-02-16T09:26:10;100531.81;;;11.16;100.00
1736;BME280;865;53.672;10.250;2024-02-16T09:28:40;100524.47;;;11.31;100.00
1736;BME280;865;53.672;10.250;2024-02-16T09:31:14;100534.19;;;11.24;100.00
1736;BME280;865;53.672;10.250;2024-02-16T09:33:40;100540.16;;;11.29;100.00
1736;BME280;865;53.672;10.250;2024-02-16T09:36:07;100531.75;;;11.18;100.00
1736;BME280;865;53.672;10.250;2024-02-16T09:38:34;100538.47;;;11.28;100.00
1736;BME280;865;53.672;10.250;2024-02-16T09:41:00;100530.72;;;11.24;100.00
1736;BME280;865;53.672;10.250;2024-02-16T09:43:29;100533.19;;;11.30;100.00
1736;BME280;865;53.672;10.250;2024-02-16T09:45:57;100531.31;;;11.35;100.00
1736;BME280;865;53.672;10.250;2024-02-16T09:48:26;100530.19;;;11.11;100.00
1736;BME280;865;53.672;10.250;2024-02-16T09:50:56;100535.09;;;11.23;100.00
1736;BME280;865;53.672;10.250;2024-02-16T09:53:27;100522.97;;;11.21;100.00
1736;BME280;865;53.672;10.250;2024-02-16T09:55:54;100526.38;;;11.24;100.00
1736;BME280;865;53.672;10.250;2024-02-16T09:58:20;100541.09;;;11.27;100.00
1736;BME280;865;53.672;10.250;2024-02-16T10:00:48;100540.84;;;11.36;100.00
1736;BME280;865;53.672;10.250;2024-02-16T10:03:43;100532.00;;;11.41;100.00
1736;BME280;865;53.672;10.250;2024-02-16T10:06:11;100542.50;;;11.40;100.00
1736;BME280;865;53.672;10.250;2024-02-16T10:08:52;100543.19;;;11.47;100.00
1736;BME280;865;53.672;10.250;2024-02-16T10:11:23;100541.56;;;11.43;100.00
1736;BME280;865;53.672;10.250;2024-02-16T10:13:58;100543.88;;;11.53;100.00
1736;BME280;865;53.672;10.250;2024-02-16T10:16:25;100543.81;;;11.56;100.00
1736;BME280;865;53.672;10.250;2024-02-16T10:18:55;100546.91;;;11.71;100.00
1736;BME280;865;53.672;10.250;2024-02-16T10:21:29;100548.47;;;11.78;100.00
1736;BME280;865;53.672;10.250;2024-02-16T10:24:00;100543.88;;;11.86;100.00
1736;BME280;865;53.672;10.250;2024-02-16T10:26:31;100550.88;;;11.85;100.00
1736;BME280;865;53.672;10.250;2024-02-16T10:28:58;100553.13;;;11.98;100.00
1736;BME280;865;53.672;10.250;2024-02-16T10:31:25;100555.56;;;12.04;100.00
1736;BME280;865;53.672;10.250;2024-02-16T10:34:01;100551.09;;;12.07;100.00
1736;BME280;865;53.672;10.250;2024-02-16T10:36:33;100551.00;;;12.12;100.00
1736;BME280;865;53.672;10.250;2024-02-16T10:39:01;100557.84;;;12.16;100.00
1736;BME280;865;53.672;10.250;2024-02-16T10:41:38;100550.69;;;12.23;100.00
1736;BME280;865;53.672;10.250;2024-02-16T10:44:06;100550.41;;;12.32;100.00
1736;BME280;865;53.672;10.250;2024-02-16T10:46:36;100564.97;;;12.41;100.00
1736;BME280;865;53.672;10.250;2024-02-16T10:49:03;100568.19;;;12.49;100.00
1736;BME280;865;53.672;10.250;2024-02-16T10:52:00;100575.84;;;12.55;100.00
1736;BME280;865;53.672;10.250;2024-02-16T10:54:32;100574.72;;;12.64;100.00
1736;BME280;865;53.672;10.250;2024-02-16T10:57:00;100572.16;;;12.62;100.00
1736;BME280;865;53.672;10.250;2024-02-16T10:59:26;100575.84;;;12.55;100.00
1736;BME280;865;53.672;10.250;2024-02-16T11:02:01;100570.81;;;12.49;100.00
1736;BME280;865;53.672;10.250;2024-02-16T11:04:36;100565.56;;;12.49;100.00
1736;BME280;865;53.672;10.250;2024-02-16T11:07:12;100568.78;;;12.59;100.00
1736;BME280;865;53.672;10.250;2024-02-16T11:09:42;100570.41;;;12.63;100.00
1736;BME280;865;53.672;10.250;2024-02-16T11:12:12;100567.84;;;12.61;100.00
1736;BME280;865;53.672;10.250;2024-02-16T11:17:10;100562.13;;;12.76;100.00
1736;BME280;865;53.672;10.250;2024-02-16T11:19:40;100561.00;;;12.84;100.00
1736;BME280;865;53.672;10.250;2024-02-16T11:22:07;100551.97;;;12.94;100.00
1736;BME280;865;53.672;10.250;2024-02-16T11:24:36;100556.91;;;13.03;100.00
1736;BME280;865;53.672;10.250;2024-02-16T11:27:07;100548.03;;;13.07;100.00
1736;BME280;865;53.672;10.250;2024-02-16T11:29:35;100552.03;;;13.17;100.00
1736;BME280;865;53.672;10.250;2024-02-16T11:32:02;100561.47;;;13.23;100.00
1736;BME280;865;53.672;10.250;2024-02-16T11:34:29;100555.91;;;13.34;100.00
1736;BME280;865;53.672;10.250;2024-02-16T11:36:56;100551.47;;;13.36;100.00
1736;BME280;865;53.672;10.250;2024-02-16T11:39:25;100551.91;;;13.49;100.00
1736;BME280;865;53.672;10.250;2024-02-16T11:42:03;100545.63;;;13.53;100.00
1736;BME280;865;53.672;10.250;2024-02-16T11:44:30;100543.72;;;13.58;100.00
1736;BME280;865;53.672;10.250;2024-02-16T11:46:59;100544.41;;;13.63;100.00
1736;BME280;865;53.672;10.250;2024-02-16T11:49:27;100538.09;;;13.68;100.00
1736;BME280;865;53.672;10.250;2024-02-16T11:51:54;100545.16;;;13.66;100.00
1736;BME280;865;53.672;10.250;2024-02-16T11:54:21;100545.25;;;13.63;100.00
1736;BME280;865;53.672;10.250;2024-02-16T11:56:48;100546.97;;;13.64;100.00
1736;BME280;865;53.672;10.250;2024-02-16T11:59:19;100539.09;;;13.64;100.00
1736;BME280;865;53.672;10.250;2024-02-16T12:01:53;100538.09;;;13.68;100.00
1736;BME280;865;53.672;10.250;2024-02-16T12:04:25;100548.88;;;13.84;100.00
1736;BME280;865;53.672;10.250;2024-02-16T12:06:59;100541.16;;;13.80;100.00
1736;BME280;865;53.672;10.250;2024-02-16T12:09:30;100547.44;;;13.76;100.00
1736;BME280;865;53.672;10.250;2024-02-16T12:12:02;100555.91;;;13.84;100.00
1736;BME280;865;53.672;10.250;2024-02-16T12:14:29;100555.56;;;13.93;100.00
1736;BME280;865;53.672;10.250;2024-02-16T12:16:56;100548.94;;;14.06;100.00
1736;BME280;865;53.672;10.250;2024-02-16T12:19:24;100540.91;;;14.11;100.00
1736;BME280;865;53.672;10.250;2024-02-16T12:21:55;100549.34;;;14.19;100.00
1736;BME280;865;53.672;10.250;2024-02-16T12:24:23;100547.13;;;14.08;100.00
1736;BME280;865;53.672;10.250;2024-02-16T12:26:50;100546.50;;;14.02;100.00
1736;BME280;865;53.672;10.250;2024-02-16T12:29:17;100537.91;;;13.98;100.00
1736;BME280;865;53.672;10.250;2024-02-16T12:31:45;100540.91;;;14.11;100.00
1736;BME280;865;53.672;10.250;2024-02-16T12:34:14;100536.84;;;14.02;100.00
1736;BME280;865;53.672;10.250;2024-02-16T12:36:41;100536.75;;;14.05;100.00
1736;BME280;865;53.672;10.250;2024-02-16T12:39:13;100533.16;;;14.08;100.00
1736;BME280;865;53.672;10.250;2024-02-16T12:41:42;100535.16;;;14.01;100.00
1736;BME280;865;53.672;10.250;2024-02-16T12:44:10;100537.94;;;13.97;100.00
1736;BME280;865;53.672;10.250;2024-02-16T12:46:36;100546.66;;;13.97;100.00
1736;BME280;865;53.672;10.250;2024-02-16T12:49:05;100550.91;;;14.01;100.00
1736;BME280;865;53.672;10.250;2024-02-16T12:51:31;100545.34;;;14.09;100.00
1736;BME280;865;53.672;10.250;2024-02-16T12:53:58;100549.03;;;14.03;100.00
1736;BME280;865;53.672;10.250;2024-02-16T12:56:26;100553.41;;;14.04;100.00
1736;BME280;865;53.672;10.250;2024-02-16T12:58:52;100555.22;;;14.02;100.00
1736;BME280;865;53.672;10.250;2024-02-16T13:01:19;100560.50;;;14.01;100.00
1736;BME280;865;53.672;10.250;2024-02-16T13:03:52;100556.03;;;14.04;100.00
1736;BME280;865;53.672;10.250;2024-02-16T13:06:18;100564.78;;;14.03;100.00
1736;BME280;865;53.672;10.250;2024-02-16T13:08:49;100562.94;;;14.07;100.00
1736;BME280;865;53.672;10.250;2024-02-16T13:11:16;100555.16;;;14.04;100.00